Terminal Aerodrome Forecast
Issued by NWS

Home | Current Version | Previous Version | Text Only | Print | Product List | Glossary On
Versions: 1 2 3 4 5 6 7 8 9 10 11 12
000
FTUS41 KPBZ 040529
TAFBVI
TAF
KBVI 040529Z 0406/0506 VRB04KT P6SM SCT250 WS010/22030KT
     FM041600 22011G21KT P6SM SCT060 BKN250
     FM050100 21007KT P6SM BKN080
      AMD NOT SKED=

USA.gov is the U.S. government's official web portal to all federal, state and local government web resources and services.